Time;durP1;ratioP1;P1;durP2;ratioP2;P2;SDS_P1;SDS_P2;PMS_P1;PMS_P2;Temp;Humidity;BMP_temperature;BMP_pressure;BME280_temperature;BME280_humidity;BME280_pressure;Samples;Min_cycle;Max_cycle;Signal;HPM_P1;HPM_P2
2023/03/20 00:02:06;;;;;;;2.50;1.87;;;11.30;99.90;;;11.35;nan;100877.28;5004786;28;20626;-66
2023/03/20 00:04:33;;;;;;;2.00;1.87;;;11.20;99.90;;;11.27;nan;100872.59;4991397;28;20975;-65
2023/03/20 00:07:00;;;;;;;2.30;2.00;;;11.10;99.90;;;11.27;nan;100882.22;4991106;28;20637;-67
2023/03/20 00:09:27;;;;;;;1.70;1.60;;;11.10;99.90;;;11.30;nan;100889.84;4965287;28;21237;-65
2023/03/20 00:11:55;;;;;;;1.67;1.57;;;11.10;99.90;;;11.28;nan;100887.34;4968353;28;20635;-66
2023/03/20 00:14:23;;;;;;;1.90;1.80;;;11.20;99.90;;;11.23;nan;100889.44;4970876;28;21226;-65
2023/03/20 00:16:51;;;;;;;2.00;1.90;;;11.10;99.90;;;11.24;nan;100893.72;4973563;28;20666;-64
2023/03/20 00:19:28;;;;;;;1.50;1.50;;;11.10;99.90;;;11.25;nan;100889.31;4970464;28;21252;-66
2023/03/20 00:21:56;;;;;;;1.53;1.43;;;11.10;99.90;;;11.26;nan;100891.00;4972368;28;20618;-65
2023/03/20 00:24:24;;;;;;;2.20;1.97;;;11.10;99.90;;;11.28;nan;100894.34;4974791;28;20635;-65
2023/03/20 00:26:51;;;;;;;2.20;2.00;;;11.10;99.90;;;11.29;nan;100893.38;4965205;28;20640;-66
2023/03/20 00:29:26;;;;;;;2.43;2.30;;;11.20;99.90;;;11.27;nan;100896.09;4974487;28;20712;-62
2023/03/20 00:31:54;;;;;;;1.87;1.77;;;11.10;99.90;;;11.25;nan;100892.78;4974169;28;20649;-65
2023/03/20 00:34:25;;;;;;;2.20;1.40;;;11.10;99.90;;;11.23;nan;100899.88;4974868;28;20627;-65
2023/03/20 00:36:53;;;;;;;1.73;1.73;;;11.10;99.90;;;11.24;nan;100898.13;4973790;28;20798;-65
2023/03/20 00:39:22;;;;;;;1.47;1.47;;;11.10;99.90;;;11.24;nan;100904.19;4975625;28;21173;-65
2023/03/20 00:42:00;;;;;;;1.83;1.73;;;11.10;99.90;;;11.24;nan;100904.19;4972953;28;20635;-67
2023/03/20 00:44:39;;;;;;;1.50;1.50;;;11.10;99.90;;;11.23;nan;100899.03;4972568;28;21208;-65
2023/03/20 00:47:17;;;;;;;1.47;1.37;;;11.10;99.90;;;11.18;nan;100890.72;4972830;28;20642;-65
2023/03/20 00:49:49;;;;;;;1.80;1.70;;;11.10;99.90;;;11.21;nan;100895.72;4974429;28;20623;-65
2023/03/20 00:52:18;;;;;;;1.30;1.30;;;11.10;99.90;;;11.18;nan;100903.78;4972263;28;20643;-65
2023/03/20 00:54:45;;;;;;;3.00;1.33;;;11.00;99.90;;;11.14;nan;100899.72;4974461;28;20646;-62
2023/03/20 00:57:30;;;;;;;1.17;1.17;;;11.00;99.90;;;11.16;nan;100897.81;4966853;28;20814;-64
2023/03/20 01:00:04;;;;;;;1.67;1.57;;;11.00;99.90;;;11.18;nan;100898.56;4960491;28;21189;-65
2023/03/20 01:02:32;;;;;;;1.63;1.53;;;11.00;99.90;;;11.19;nan;100901.03;4966993;28;20650;-66
2023/03/20 01:04:59;;;;;;;2.60;1.97;;;11.10;99.90;;;11.20;nan;100897.47;4964632;28;20712;-65
2023/03/20 01:07:27;;;;;;;1.83;1.40;;;11.10;99.90;;;11.20;nan;100901.88;4985152;28;20643;-64
2023/03/20 01:09:55;;;;;;;1.73;1.57;;;11.10;99.90;;;11.19;nan;100898.44;5023358;23;20685;-67
2023/03/20 01:12:22;;;;;;;1.47;1.37;;;11.10;99.90;;;11.18;nan;100901.16;5012065;28;20625;-66
2023/03/20 01:14:55;;;;;;;1.93;1.47;;;11.10;99.90;;;11.13;nan;100903.25;5013730;28;20617;-66
2023/03/20 01:17:25;;;;;;;1.47;1.40;;;11.00;99.90;;;11.13;nan;100898.03;5000280;28;20672;-66
2023/03/20 01:19:52;;;;;;;1.83;1.70;;;11.00;99.90;;;11.15;nan;100903.97;5002879;28;20649;-66
2023/03/20 01:22:19;;;;;;;1.50;1.40;;;11.00;99.90;;;11.16;nan;100906.47;5012814;28;20694;-66
2023/03/20 01:24:46;;;;;;;1.10;1.10;;;11.00;99.90;;;11.14;nan;100908.34;5013120;28;20716;-68
2023/03/20 01:27:17;;;;;;;0.93;0.93;;;11.00;99.90;;;11.12;nan;100914.63;5012489;28;20634;-67
2023/03/20 01:29:44;;;;;;;1.17;1.17;;;11.00;99.90;;;11.11;nan;100910.34;5013414;28;20637;-66
2023/03/20 01:32:15;;;;;;;1.50;1.10;;;11.00;99.90;;;11.12;nan;100906.78;5011880;28;20629;-67
2023/03/20 01:34:43;;;;;;;1.10;1.10;;;11.00;99.90;;;11.11;nan;100905.13;5012568;28;20636;-66
2023/03/20 01:37:26;;;;;;;1.30;1.30;;;11.00;99.90;;;11.11;nan;100907.75;5011569;28;20723;-67
2023/03/20 01:39:55;;;;;;;1.30;1.30;;;11.00;99.90;;;11.13;nan;100917.16;5012518;28;20649;-65
2023/03/20 01:42:22;;;;;;;1.43;1.33;;;11.00;99.90;;;11.13;nan;100908.47;5011145;28;20647;-66
2023/03/20 01:44:50;;;;;;;1.03;1.03;;;11.00;99.90;;;11.13;nan;100914.53;5028444;28;20609;-67
2023/03/20 01:47:22;;;;;;;1.57;1.47;;;11.00;99.90;;;11.15;nan;100914.41;5011263;28;21201;-67
2023/03/20 01:50:21;;;;;;;1.10;1.10;;;11.00;99.90;;;11.15;nan;100917.03;5010373;28;21238;-67
2023/03/20 01:53:03;;;;;;;1.83;1.80;;;11.00;99.90;;;11.19;nan;100926.31;5008670;28;21278;-67
2023/03/20 01:55:31;;;;;;;1.60;1.50;;;11.10;99.90;;;11.21;nan;100919.22;5011908;28;20629;-67
2023/03/20 01:58:04;;;;;;;1.43;1.43;;;11.10;99.90;;;11.26;nan;100924.97;5011492;28;20672;-67
2023/03/20 02:00:31;;;;;;;1.77;1.67;;;11.10;99.90;;;11.28;nan;100921.31;5027593;28;20639;-67
2023/03/20 02:02:59;;;;;;;1.57;1.47;;;11.20;99.90;;;11.29;nan;100922.13;5010177;28;20641;-67
2023/03/20 02:05:26;;;;;;;3.57;2.00;;;11.20;99.90;;;11.30;nan;100919.41;5026699;28;20626;-66
2023/03/20 02:08:10;;;;;;;1.33;1.23;;;11.20;99.90;;;11.32;nan;100920.16;5010965;28;21209;-67
2023/03/20 02:10:39;;;;;;;1.53;1.40;;;11.20;99.90;;;11.34;nan;100925.25;5009611;28;20632;-65
2023/03/20 02:13:06;;;;;;;1.23;1.23;;;11.20;99.90;;;11.33;nan;100923.59;5012410;28;20638;-66
2023/03/20 02:15:35;;;;;;;1.10;1.10;;;11.20;99.90;;;11.34;nan;100920.03;5010563;28;21182;-67
2023/03/20 02:18:02;;;;;;;1.37;1.37;;;11.30;99.90;;;11.30;nan;100923.81;5010369;28;20673;-67
2023/03/20 02:20:47;;;;;;;1.43;1.40;;;11.20;99.90;;;11.27;nan;100927.47;5027240;28;20632;-67
2023/03/20 02:23:56;;;;;;;1.27;1.27;;;11.20;99.90;;;11.26;nan;100933.63;5011904;28;20641;-67
2023/03/20 02:26:57;;;;;;;1.03;1.00;;;11.20;99.90;;;11.21;nan;100927.88;4987372;28;21304;-66
2023/03/20 02:29:47;;;;;;;1.30;1.07;;;11.10;99.90;;;11.17;nan;100925.59;4993268;28;20724;-66
2023/03/20 02:32:37;;;;;;;1.00;1.00;;;11.10;99.90;;;11.12;nan;100925.06;5002954;28;20625;-67
2023/03/20 02:35:12;;;;;;;1.03;1.03;;;11.00;99.90;;;11.06;nan;100928.94;4992608;28;20638;-67
2023/03/20 02:38:21;;;;;;;1.07;1.07;;;10.90;99.90;;;11.03;nan;100923.13;5010284;28;20652;-67
2023/03/20 02:41:32;;;;;;;0.97;0.97;;;10.90;99.90;;;11.01;nan;100917.16;5010581;28;20629;-67
2023/03/20 02:44:11;;;;;;;1.00;1.00;;;10.90;99.90;;;10.99;nan;100927.69;5007187;28;20715;-65
2023/03/20 02:46:51;;;;;;;1.20;1.20;;;10.90;99.90;;;10.98;nan;100927.81;5010016;28;20629;-66
2023/03/20 02:49:18;;;;;;;0.80;0.80;;;10.80;99.90;;;10.91;nan;100919.56;5009616;28;20671;-69
2023/03/20 02:52:05;;;;;;;1.00;1.00;;;10.80;99.90;;;10.90;nan;100926.56;5011174;28;20719;-66
2023/03/20 02:55:25;;;;;;;1.20;1.20;;;10.80;99.90;;;10.93;nan;100925.50;5010350;28;20641;-69
2023/03/20 02:58:27;;;;;;;1.07;1.07;;;10.80;99.90;;;10.94;nan;100932.41;5010235;28;20672;-67
2023/03/20 03:01:00;;;;;;;1.03;1.03;;;10.80;99.90;;;10.89;nan;100934.50;4991049;28;20626;-66
2023/03/20 03:03:44;;;;;;;0.90;0.90;;;10.80;99.90;;;10.93;nan;100930.72;4998140;28;20940;-66
2023/03/20 03:06:29;;;;;;;1.23;1.23;;;10.80;99.90;;;10.92;nan;100935.09;5006270;28;20630;-66
2023/03/20 03:09:17;;;;;;;1.03;1.03;;;10.80;99.90;;;10.94;nan;100937.63;5025463;28;20673;-66
2023/03/20 03:11:50;;;;;;;1.23;1.23;;;10.80;99.90;;;10.94;nan;100932.41;5006183;28;20640;-67
2023/03/20 03:14:34;;;;;;;1.13;1.10;;;10.80;99.90;;;10.88;nan;100923.22;5001790;28;20710;-67
2023/03/20 03:17:04;;;;;;;1.53;1.43;;;10.80;99.90;;;10.89;nan;100932.72;5015503;28;20633;-67
2023/03/20 03:19:33;;;;;;;1.30;1.30;;;10.80;99.90;;;10.88;nan;100933.66;5011286;28;20686;-65
2023/03/20 03:22:00;;;;;;;0.87;0.87;;;10.80;99.90;;;10.83;nan;100927.94;5003093;28;20629;-67
2023/03/20 03:24:31;;;;;;;2.07;1.03;;;10.70;99.90;;;10.84;nan;100926.97;5008899;28;20617;-67
2023/03/20 03:27:33;;;;;;;1.37;1.37;;;10.70;99.90;;;10.87;nan;100928.53;5010030;28;21004;-69
2023/03/20 03:30:36;;;;;;;1.07;1.07;;;10.80;99.90;;;10.88;nan;100919.78;5009339;28;20708;-67
2023/03/20 03:33:27;;;;;;;0.93;0.93;;;10.80;99.90;;;10.92;nan;100922.06;4985277;28;21069;-66
2023/03/20 03:36:27;;;;;;;1.03;1.03;;;10.80;99.90;;;10.92;nan;100913.41;5014764;28;20630;-65
2023/03/20 03:39:13;;;;;;;1.10;1.10;;;10.80;99.90;;;10.88;nan;100917.19;4998613;28;20707;-66
2023/03/20 03:41:47;;;;;;;0.80;0.80;;;10.80;99.90;;;10.83;nan;100909.66;5010995;28;20621;-68
2023/03/20 03:44:51;;;;;;;1.67;1.60;;;10.70;99.90;;;10.84;nan;100916.53;5008869;28;20633;-67
2023/03/20 03:47:34;;;;;;;1.00;1.00;;;10.70;99.90;;;10.87;nan;100915.50;5010365;28;20618;-67
2023/03/20 03:50:13;;;;;;;2.27;2.07;;;10.70;99.90;;;10.88;nan;100920.59;5008969;28;20649;-67
2023/03/20 03:52:42;;;;;;;1.87;1.67;;;10.80;99.90;;;10.90;nan;100923.94;5024988;28;20605;-65
2023/03/20 03:55:36;;;;;;;2.40;2.30;;;10.80;99.90;;;10.94;nan;100927.19;5026511;28;21187;-66
2023/03/20 03:58:35;;;;;;;2.60;2.40;;;10.80;99.90;;;10.98;nan;100933.03;5008989;28;20672;-67
2023/03/20 04:01:04;;;;;;;2.83;2.53;;;10.90;99.90;;;11.02;nan;100937.09;5008940;28;20688;-67
2023/03/20 04:03:38;;;;;;;2.60;2.40;;;10.90;99.90;;;11.07;nan;100941.09;5008975;28;20625;-67
2023/03/20 04:06:08;;;;;;;2.70;2.50;;;11.00;99.90;;;11.15;nan;100943.16;5026006;28;20616;-68
2023/03/20 04:08:35;;;;;;;3.57;3.13;;;11.00;99.90;;;11.17;nan;100949.09;5024238;28;20726;-66
2023/03/20 04:11:02;;;;;;;2.53;2.33;;;11.00;99.90;;;11.15;nan;100943.16;5026054;28;20637;-67
2023/03/20 04:13:30;;;;;;;3.50;2.90;;;11.10;99.90;;;11.13;nan;100951.09;5025021;28;20629;-67
2023/03/20 04:15:56;;;;;;;4.83;3.07;;;11.00;99.90;;;11.13;nan;100950.25;5005021;28;20643;-67
2023/03/20 04:18:23;;;;;;;6.07;3.13;;;11.00;99.90;;;11.12;nan;100945.97;5009391;28;20665;-66
2023/03/20 04:20:51;;;;;;;3.37;3.03;;;11.00;99.90;;;11.12;nan;100946.81;5009438;28;20637;-67
2023/03/20 04:23:18;;;;;;;4.80;3.40;;;11.00;99.90;;;11.11;nan;100950.38;5010137;28;20737;-68
2023/03/20 04:25:45;;;;;;;3.67;2.80;;;11.00;99.90;;;11.10;nan;100953.06;5008742;28;20656;-67
2023/03/20 04:28:15;;;;;;;3.40;2.87;;;11.00;99.90;;;11.11;nan;100945.16;5007550;28;20653;-69
2023/03/20 04:30:43;;;;;;;3.93;2.67;;;11.00;99.90;;;11.10;nan;100937.41;5010191;28;20613;-68
2023/03/20 04:33:10;;;;;;;3.07;2.70;;;11.00;99.90;;;11.07;nan;100941.09;5009446;28;21202;-66
2023/03/20 04:35:37;;;;;;;2.70;2.37;;;11.00;99.90;;;11.04;nan;100935.22;5009355;28;20613;-65
2023/03/20 04:38:04;;;;;;;5.60;3.00;;;10.90;99.90;;;10.99;nan;100945.97;5010020;28;20672;-68
2023/03/20 04:40:31;;;;;;;1.90;1.80;;;10.90;99.90;;;10.99;nan;100955.59;5008706;28;20683;-67
2023/03/20 04:42:58;;;;;;;1.87;1.77;;;10.80;99.90;;;11.01;nan;100954.53;5008417;28;20636;-67
2023/03/20 04:45:25;;;;;;;3.60;2.07;;;10.90;99.90;;;11.02;nan;100944.94;5010761;28;20610;-67
2023/03/20 04:47:52;;;;;;;2.23;1.73;;;10.90;99.90;;;11.03;nan;100957.88;5008440;28;20620;-67
2023/03/20 04:50:19;;;;;;;2.20;2.00;;;10.90;99.90;;;10.99;nan;100956.41;5010441;28;21171;-67
2023/03/20 04:52:46;;;;;;;2.90;1.67;;;10.90;99.90;;;10.98;nan;100965.19;5009102;28;20957;-67
2023/03/20 04:55:14;;;;;;;1.70;1.60;;;10.90;99.90;;;10.98;nan;100966.97;5010697;28;20625;-68
2023/03/20 04:57:41;;;;;;;1.73;1.60;;;10.90;99.90;;;10.94;nan;100963.75;5009379;28;20668;-67
2023/03/20 05:00:10;;;;;;;1.60;1.50;;;10.80;99.90;;;10.93;nan;100967.28;5008740;28;20664;-67
2023/03/20 05:02:37;;;;;;;2.20;1.70;;;10.80;99.90;;;10.93;nan;100968.13;5008225;28;20690;-67
2023/03/20 05:05:04;;;;;;;1.60;1.47;;;10.80;99.90;;;10.94;nan;100964.56;5009305;28;20652;-67
2023/03/20 05:07:31;;;;;;;3.73;1.90;;;10.80;99.90;;;10.94;nan;100963.75;5008900;28;21032;-68
2023/03/20 05:09:59;;;;;;;2.23;1.97;;;10.80;99.90;;;10.90;nan;100963.09;5013531;28;20677;-67
2023/03/20 05:12:26;;;;;;;2.20;2.10;;;10.80;99.90;;;10.90;nan;100967.50;5010356;28;20637;-68
2023/03/20 05:14:56;;;;;;;2.27;2.07;;;10.70;99.90;;;10.88;nan;100970.19;5011453;28;20633;-67
2023/03/20 05:17:23;;;;;;;1.97;1.87;;;10.80;99.90;;;10.91;nan;100974.38;5012389;28;21074;-67
2023/03/20 05:19:50;;;;;;;2.60;2.40;;;10.80;99.90;;;10.90;nan;100973.53;5012042;28;20672;-65
2023/03/20 05:22:18;;;;;;;2.60;2.40;;;10.80;99.90;;;10.93;nan;100978.56;5012360;28;21217;-69
2023/03/20 05:24:45;;;;;;;2.70;2.47;;;10.80;99.90;;;10.96;nan;100979.28;5027614;28;20641;-67
2023/03/20 05:27:12;;;;;;;5.23;2.47;;;10.90;99.90;;;10.98;nan;100978.25;5012951;28;20739;-68
2023/03/20 05:29:39;;;;;;;3.00;2.17;;;10.90;99.90;;;10.98;nan;100980.03;5012018;28;20692;-64
2023/03/20 05:32:06;;;;;;;4.93;2.17;;;10.90;99.90;;;10.96;nan;100982.75;5012384;28;20694;-67
2023/03/20 05:34:33;;;;;;;2.57;2.37;;;10.90;99.90;;;10.95;nan;100978.44;5011897;28;20637;-67
2023/03/20 05:37:00;;;;;;;2.03;1.93;;;10.80;99.90;;;10.96;nan;100972.31;5012331;28;20629;-68
2023/03/20 05:39:26;;;;;;;3.00;2.20;;;10.80;99.90;;;10.98;nan;100966.97;5012084;28;20665;-68
2023/03/20 05:41:53;;;;;;;2.57;2.07;;;10.80;99.90;;;10.98;nan;100973.03;5027304;28;21011;-67
2023/03/20 05:44:20;;;;;;;2.77;2.57;;;10.90;99.90;;;10.97;nan;100968.75;5012328;28;20641;-67
2023/03/20 05:46:47;;;;;;;1.87;1.77;;;10.90;99.90;;;10.91;nan;100959.56;5012761;28;20609;-67
2023/03/20 05:49:14;;;;;;;2.20;2.00;;;10.80;99.90;;;10.93;nan;100957.69;5012006;28;21024;-67
2023/03/20 05:51:41;;;;;;;8.03;2.60;;;10.80;99.90;;;10.96;nan;100958.41;5012576;28;20609;-67
2023/03/20 05:54:08;;;;;;;3.40;2.60;;;10.80;99.90;;;10.96;nan;100959.25;5009220;28;21010;-68
2023/03/20 05:56:36;;;;;;;3.83;2.80;;;10.80;99.90;;;10.98;nan;100959.97;5006867;28;20622;-65
2023/03/20 05:59:03;;;;;;;3.30;2.80;;;10.80;99.90;;;10.97;nan;100965.31;5011405;28;20668;-66
2023/03/20 06:01:30;;;;;;;3.83;2.70;;;10.80;99.90;;;10.97;nan;100963.53;5013284;28;20641;-65
2023/03/20 06:03:57;;;;;;;3.67;3.37;;;10.80;99.90;;;11.03;nan;100983.97;5012179;28;21252;-66
2023/03/20 06:06:24;;;;;;;3.20;2.90;;;10.90;99.90;;;11.07;nan;100995.91;5012161;28;20633;-65
2023/03/20 06:08:50;;;;;;;7.30;4.00;;;10.90;99.90;;;11.10;nan;101002.69;5012096;28;20645;-66
2023/03/20 06:11:17;;;;;;;4.90;3.93;;;11.00;99.90;;;11.13;nan;101008.56;5012442;28;20691;-66
2023/03/20 06:13:45;;;;;;;2.60;2.07;;;11.00;99.90;;;11.17;nan;101001.34;5012100;28;20629;-66
2023/03/20 06:16:12;;;;;;;1.73;1.63;;;11.00;99.90;;;11.12;nan;100995.56;5012184;28;20637;-67
2023/03/20 06:18:39;;;;;;;3.47;2.97;;;11.00;99.90;;;11.07;nan;100995.91;5012029;28;21076;-67
2023/03/20 06:21:06;;;;;;;4.00;2.53;;;11.00;99.90;;;11.03;nan;100994.44;5009933;28;20634;-66
2023/03/20 06:23:33;;;;;;;4.90;2.67;;;10.90;99.90;;;11.06;nan;101001.22;5012115;28;20634;-66
2023/03/20 06:26:00;;;;;;;3.17;2.73;;;10.90;99.90;;;11.08;nan;101004.56;5011475;28;20638;-66
2023/03/20 06:28:27;;;;;;;3.33;2.47;;;10.90;99.90;;;11.10;nan;101003.53;5012168;28;21144;-66
2023/03/20 06:30:54;;;;;;;5.47;3.07;;;11.00;99.90;;;11.07;nan;101003.75;5010240;28;21408;-66
2023/03/20 06:33:21;;;;;;;5.70;3.17;;;11.00;99.90;;;11.06;nan;101009.91;5011318;28;20644;-70
2023/03/20 06:35:49;;;;;;;2.63;2.40;;;11.00;99.90;;;11.05;nan;101007.41;5011124;28;21001;-65
2023/03/20 06:38:16;;;;;;;4.60;2.77;;;10.90;99.90;;;11.07;nan;101018.56;5009947;28;21084;-66
2023/03/20 06:40:44;;;;;;;6.80;3.37;;;10.90;99.90;;;11.12;nan;101017.31;5004213;28;20621;-66
2023/03/20 06:43:11;;;;;;;6.33;4.20;;;11.00;99.90;;;11.17;nan;101017.00;5010821;28;20656;-65
2023/03/20 06:45:38;;;;;;;4.90;3.40;;;11.00;99.90;;;11.19;nan;101025.56;5011690;28;21202;-66
2023/03/20 06:48:07;;;;;;;5.07;4.13;;;11.10;99.90;;;11.22;nan;101020.97;5010147;28;20704;-68
2023/03/20 06:50:34;;;;;;;4.40;4.00;;;11.10;99.90;;;11.27;nan;101024.09;4999926;28;21211;-67
2023/03/20 06:53:02;;;;;;;5.13;3.97;;;11.20;99.90;;;11.33;nan;101028.09;5011294;28;20629;-68
2023/03/20 06:55:29;;;;;;;6.50;3.87;;;11.20;99.90;;;11.39;nan;101032.88;5026224;28;20641;-68
2023/03/20 06:57:56;;;;;;;4.93;3.67;;;11.30;99.90;;;11.38;nan;101031.22;5011563;28;20678;-68
2023/03/20 07:00:24;;;;;;;4.60;3.30;;;11.30;99.90;;;11.36;nan;101031.31;5010841;28;21123;-68
2023/03/20 07:02:51;;;;;;;5.53;3.77;;;11.30;99.90;;;11.35;nan;101031.44;5011611;28;20648;-67
2023/03/20 07:05:19;;;;;;;4.60;3.27;;;11.20;99.90;;;11.34;nan;101024.53;5010663;28;20640;-67
2023/03/20 07:07:46;;;;;;;2.57;2.30;;;11.20;99.90;;;11.32;nan;101022.03;5004103;28;20646;-67
2023/03/20 07:10:13;;;;;;;2.80;2.57;;;11.20;99.90;;;11.27;nan;101020.66;4990084;23;1082959;-64
2023/03/20 07:12:40;;;;;;;4.20;3.13;;;11.20;99.90;;;11.22;nan;101014.94;4984042;28;20208;-64
2023/03/20 07:15:07;;;;;;;5.10;3.03;;;11.10;99.90;;;11.20;nan;101017.63;4972216;28;20627;-63
2023/03/20 07:17:34;;;;;;;2.70;2.40;;;11.10;99.90;;;11.21;nan;101019.31;4975414;28;20649;-64
2023/03/20 07:20:02;;;;;;;5.60;3.40;;;11.10;99.90;;;11.21;nan;101015.84;4991674;28;20662;-66
2023/03/20 07:22:32;;;;;;;3.27;2.97;;;11.10;99.90;;;11.24;nan;101018.28;4988186;28;20610;-65
2023/03/20 07:24:59;;;;;;;2.57;2.40;;;11.10;99.90;;;11.25;nan;101015.53;4982834;28;21212;-65
2023/03/20 07:27:26;;;;;;;6.20;3.67;;;11.10;99.90;;;11.31;nan;101017.72;4989316;28;21192;-65
2023/03/20 07:29:53;;;;;;;4.10;3.33;;;11.20;99.90;;;11.44;nan;101026.41;4988271;28;20654;-65
2023/03/20 07:32:20;;;;;;;5.97;3.40;;;11.30;99.90;;;11.53;nan;101020.53;4990060;28;20634;-66
2023/03/20 07:34:48;;;;;;;4.57;3.30;;;11.40;99.90;;;11.60;nan;101019.19;4989447;28;20638;-65
2023/03/20 07:37:16;;;;;;;4.47;3.33;;;11.50;99.90;;;11.71;nan;101028.91;4990055;28;20647;-65
2023/03/20 07:39:43;;;;;;;4.43;3.30;;;11.60;99.90;;;11.74;nan;101027.84;4990494;28;20685;-65
2023/03/20 07:42:10;;;;;;;5.77;3.53;;;11.60;99.90;;;11.77;nan;101038.09;4990280;28;20649;-64
2023/03/20 07:44:36;;;;;;;8.60;4.47;;;11.60;99.90;;;11.80;nan;101033.47;4988319;28;20984;-65
2023/03/20 07:47:06;;;;;;;7.57;4.33;;;11.70;99.90;;;11.83;nan;101035.88;4984458;28;20643;-64
2023/03/20 07:49:33;;;;;;;6.57;4.17;;;11.70;99.90;;;11.84;nan;101042.75;5001670;28;20728;-65
2023/03/20 07:52:00;;;;;;;4.57;3.57;;;11.70;99.90;;;11.85;nan;101041.84;4974736;28;20631;-65
2023/03/20 07:54:27;;;;;;;9.50;4.30;;;11.70;99.90;;;11.86;nan;101048.72;4990721;28;20641;-65
2023/03/20 07:56:54;;;;;;;7.80;4.10;;;11.70;99.90;;;11.83;nan;101048.94;4989636;28;20618;-63
2023/03/20 07:59:21;;;;;;;8.60;4.97;;;11.70;99.90;;;11.84;nan;101047.19;4989369;28;20784;-65
2023/03/20 08:01:48;;;;;;;16.77;7.33;;;11.70;99.90;;;11.90;nan;101050.19;4987142;28;21008;-65
2023/03/20 08:04:18;;;;;;;11.90;6.40;;;11.80;99.90;;;11.93;nan;101060.44;4989825;28;20635;-65
2023/03/20 08:06:45;;;;;;;14.00;6.70;;;11.80;99.90;;;11.96;nan;101052.38;4989545;28;21058;-66
2023/03/20 08:09:12;;;;;;;9.27;5.60;;;11.90;99.90;;;12.03;nan;101052.78;4988668;28;20678;-64
2023/03/20 08:11:39;;;;;;;8.23;4.80;;;11.90;99.90;;;12.08;nan;101054.09;4988622;28;20642;-65
2023/03/20 08:14:06;;;;;;;4.80;3.87;;;11.90;99.90;;;12.13;nan;101056.41;4989538;28;20642;-63
2023/03/20 08:16:33;;;;;;;8.67;4.27;;;12.00;99.90;;;12.17;nan;101057.84;4985610;28;20638;-63
2023/03/20 08:19:00;;;;;;;7.80;4.87;;;12.00;99.90;;;12.22;nan;101055.75;4984829;28;21231;-62
2023/03/20 08:21:29;;;;;;;11.17;5.60;;;12.10;99.90;;;12.28;nan;101057.91;5007678;28;20616;-66
2023/03/20 08:23:57;;;;;;;9.00;5.23;;;12.20;99.90;;;12.33;nan;101056.63;4989853;28;20610;-64
2023/03/20 08:26:24;;;;;;;9.50;5.60;;;12.20;99.90;;;12.43;nan;101059.44;4989899;28;20684;-63
2023/03/20 08:28:52;;;;;;;10.03;5.90;;;12.30;99.90;;;12.47;nan;101066.09;4983820;28;20725;-64
2023/03/20 08:31:19;;;;;;;9.40;5.47;;;12.40;99.90;;;12.49;nan;101061.59;4988574;28;21179;-64
2023/03/20 08:33:46;;;;;;;12.20;4.70;;;12.40;99.90;;;12.50;nan;101065.84;4988894;28;20703;-64
2023/03/20 08:36:14;;;;;;;11.90;5.03;;;12.40;99.90;;;12.53;nan;101059.56;4989853;28;20688;-64
2023/03/20 08:38:42;;;;;;;10.53;5.30;;;12.40;99.90;;;12.57;nan;101069.72;4990030;28;21100;-64
2023/03/20 08:41:09;;;;;;;8.30;4.60;;;12.40;99.90;;;12.65;nan;101071.78;4990146;28;20618;-64
2023/03/20 08:43:36;;;;;;;8.57;4.40;;;12.50;99.90;;;12.75;nan;101070.16;4985392;28;20634;-67
2023/03/20 08:46:04;;;;;;;6.57;3.70;;;12.60;99.90;;;12.83;nan;101070.41;4986747;28;20626;-66
2023/03/20 08:48:31;;;;;;;7.80;4.50;;;12.70;99.90;;;12.90;nan;101074.25;4992859;28;21068;-66
2023/03/20 08:50:58;;;;;;;10.07;6.43;;;12.80;99.90;;;12.96;nan;101089.50;4993959;28;20631;-66
2023/03/20 08:53:26;;;;;;;9.70;5.27;;;12.80;99.90;;;12.96;nan;101085.09;4991000;28;20634;-63
2023/03/20 08:55:53;;;;;;;6.23;4.27;;;12.80;99.90;;;12.96;nan;101095.59;4988291;28;20641;-64
2023/03/20 08:58:21;;;;;;;11.00;5.80;;;12.80;99.90;;;12.91;nan;101092.47;4983039;28;20685;-66
2023/03/20 09:00:48;;;;;;;10.70;4.30;;;12.80;99.90;;;12.88;nan;101097.94;4991270;28;20674;-66
2023/03/20 09:03:19;;;;;;;6.50;4.00;;;12.80;99.90;;;12.83;nan;101093.97;4992995;28;20630;-65
2023/03/20 09:05:51;;;;;;;5.87;3.57;;;12.70;99.90;;;12.81;nan;101101.13;4994576;28;21211;-65
2023/03/20 09:08:18;;;;;;;7.20;4.17;;;12.70;99.90;;;12.80;nan;101097.66;4986307;28;20642;-65
2023/03/20 09:10:47;;;;;;;10.90;5.47;;;12.70;99.90;;;12.76;nan;101093.59;4974288;28;20627;-65
2023/03/20 09:13:17;;;;;;;7.97;4.50;;;12.70;99.90;;;12.77;nan;101099.69;4982931;28;20704;-65
2023/03/20 09:15:54;;;;;;;9.10;5.50;;;12.60;99.90;;;12.76;nan;101106.69;4993545;28;20625;-65
2023/03/20 09:18:22;;;;;;;6.70;3.57;;;12.60;99.90;;;12.80;nan;101107.31;5007089;28;20646;-65
2023/03/20 09:20:49;;;;;;;4.50;3.40;;;12.70;99.90;;;12.89;nan;101104.00;4993883;28;20674;-66
2023/03/20 09:23:17;;;;;;;5.17;3.40;;;12.70;99.90;;;13.01;nan;101105.72;4992286;28;20763;-65
2023/03/20 09:25:45;;;;;;;10.67;5.90;;;12.90;99.90;;;13.18;nan;101110.56;4993835;28;20616;-65
2023/03/20 09:28:12;;;;;;;10.10;5.10;;;13.00;99.90;;;13.33;nan;101113.81;4991972;28;20631;-66
2023/03/20 09:30:42;;;;;;;8.47;4.70;;;13.20;99.90;;;13.49;nan;101114.31;4992821;28;20652;-66
2023/03/20 09:33:09;;;;;;;9.30;4.60;;;13.30;99.90;;;13.54;nan;101105.16;4990770;28;20719;-65
2023/03/20 09:35:36;;;;;;;7.83;3.87;;;13.40;99.90;;;13.49;nan;101109.91;4992800;28;20633;-65
2023/03/20 09:38:03;;;;;;;8.13;4.30;;;13.40;99.90;;;13.42;nan;101113.09;4992840;28;20642;-66
2023/03/20 09:40:57;;;;;;;10.87;5.83;;;13.30;99.90;;;13.37;nan;101121.34;4993586;28;20662;-67
2023/03/20 09:43:48;;;;;;;6.87;4.70;;;13.30;99.90;;;13.40;nan;101121.09;4992953;28;20637;-66
2023/03/20 09:46:48;;;;;;;6.67;4.40;;;13.30;99.90;;;13.44;nan;101119.91;4991129;28;20610;-66
2023/03/20 09:49:37;;;;;;;5.73;4.07;;;13.30;99.90;;;13.53;nan;101123.59;4991893;28;20650;-65
2023/03/20 09:52:30;;;;;;;5.10;3.77;;;13.40;99.90;;;13.64;nan;101116.59;4983770;28;21215;-66
2023/03/20 09:55:06;;;;;;;8.93;6.60;;;13.50;99.90;;;13.58;nan;101122.31;4988931;28;21213;-67
2023/03/20 09:57:50;;;;;;;20.63;11.73;;;13.40;99.90;;;13.62;nan;101121.13;4992733;28;20626;-65
2023/03/20 10:00:27;;;;;;;8.50;5.63;;;13.50;99.90;;;13.61;nan;101119.44;5004203;28;20673;-67
2023/03/20 10:03:16;;;;;;;7.70;5.27;;;13.50;99.90;;;13.68;nan;101125.91;4988061;28;20646;-67
2023/03/20 10:05:58;;;;;;;10.90;5.80;;;13.50;99.90;;;13.69;nan;101122.31;4982282;28;20715;-67
2023/03/20 10:08:36;;;;;;;7.57;4.80;;;13.60;99.90;;;13.75;nan;101116.63;4987568;28;20705;-65
2023/03/20 10:11:08;;;;;;;8.87;4.53;;;13.60;99.90;;;13.84;nan;101113.25;4983663;28;20638;-65
2023/03/20 10:13:47;;;;;;;6.10;3.90;;;13.70;99.90;;;13.93;nan;101109.09;4992720;28;20680;-65
2023/03/20 10:16:47;;;;;;;8.60;5.00;;;13.80;99.90;;;14.07;nan;101110.63;4990465;28;20672;-63
2023/03/20 10:19:27;;;;;;;7.47;4.37;;;13.90;99.90;;;14.14;nan;101109.22;4990630;28;20669;-63
2023/03/20 10:22:05;;;;;;;7.40;4.37;;;14.00;99.90;;;14.15;nan;101110.84;4990888;28;20638;-67
2023/03/20 10:24:42;;;;;;;13.83;6.70;;;14.00;99.90;;;14.40;nan;101115.84;4988111;28;20638;-69
2023/03/20 10:27:32;;;;;;;8.30;5.40;;;14.20;99.90;;;14.67;nan;101116.28;4990049;28;20635;-64
2023/03/20 10:30:20;;;;;;;8.37;4.37;;;14.50;99.90;;;14.71;nan;101112.44;4986314;28;20643;-67
2023/03/20 10:33:16;;;;;;;9.37;5.60;;;14.60;99.90;;;15.01;nan;101112.56;4991753;28;20650;-66
2023/03/20 10:35:58;;;;;;;9.33;4.43;;;14.60;99.90;;;17.31;nan;101116.75;4962255;28;21009;-67
2023/03/20 10:38:47;;;;;;;10.60;4.30;;;16.70;99.90;;;19.89;nan;101112.31;4988114;28;20633;-65
2023/03/20 10:41:22;;;;;;;3.90;2.87;;;19.10;99.90;;;20.86;nan;101120.56;4989107;28;20666;-65
2023/03/20 10:43:51;;;;;;;5.37;3.60;;;20.40;99.90;;;20.84;nan;101111.94;4990863;28;20630;-65
2023/03/20 10:46:29;;;;;;;5.53;2.97;;;20.60;99.50;;;20.63;nan;101101.81;4990843;28;20626;-66
2023/03/20 10:49:00;;;;;;;2.30;2.10;;;20.50;97.60;;;20.35;nan;101096.94;4988540;28;21066;-65